sensor_id;sensor_type;location;lat;lon;timestamp;temperature;humidity
6696;DHT22;3385;48.928;10.330;2023-07-22T00:01:28;14.60;99.90
6696;DHT22;3385;48.928;10.330;2023-07-22T00:03:54;14.50;99.90
6696;DHT22;3385;48.928;10.330;2023-07-22T00:06:19;14.70;99.90
6696;DHT22;3385;48.928;10.330;2023-07-22T00:08:45;14.50;99.90
6696;DHT22;3385;48.928;10.330;2023-07-22T00:11:11;14.40;99.90
6696;DHT22;3385;48.928;10.330;2023-07-22T00:13:37;14.70;99.90
6696;DHT22;3385;48.928;10.330;2023-07-22T00:16:03;14.80;99.90
6696;DHT22;3385;48.928;10.330;2023-07-22T00:18:33;14.50;99.90
6696;DHT22;3385;48.928;10.330;2023-07-22T00:20:59;14.70;99.90
6696;DHT22;3385;48.928;10.330;2023-07-22T00:23:25;14.60;99.90
6696;DHT22;3385;48.928;10.330;2023-07-22T00:25:51;14.40;99.90
6696;DHT22;3385;48.928;10.330;2023-07-22T00:28:17;14.70;99.90
6696;DHT22;3385;48.928;10.330;2023-07-22T00:30:44;14.60;99.90
6696;DHT22;3385;48.928;10.330;2023-07-22T00:33:09;14.50;99.90
6696;DHT22;3385;48.928;10.330;2023-07-22T00:35:35;14.30;99.90
6696;DHT22;3385;48.928;10.330;2023-07-22T00:38:02;14.50;99.90
6696;DHT22;3385;48.928;10.330;2023-07-22T00:40:29;14.00;99.90
6696;DHT22;3385;48.928;10.330;2023-07-22T00:42:58;14.40;99.90
6696;DHT22;3385;48.928;10.330;2023-07-22T00:45:25;14.30;99.90
6696;DHT22;3385;48.928;10.330;2023-07-22T00:47:50;14.10;99.90
6696;DHT22;3385;48.928;10.330;2023-07-22T00:50:16;14.10;99.90
6696;DHT22;3385;48.928;10.330;2023-07-22T00:52:42;14.20;99.90
6696;DHT22;3385;48.928;10.330;2023-07-22T00:55:08;14.00;99.90
6696;DHT22;3385;48.928;10.330;2023-07-22T00:57:35;13.90;99.90
6696;DHT22;3385;48.928;10.330;2023-07-22T01:00:01;13.90;99.90
6696;DHT22;3385;48.928;10.330;2023-07-22T01:02:27;13.80;99.90
6696;DHT22;3385;48.928;10.330;2023-07-22T01:04:53;13.90;99.90
6696;DHT22;3385;48.928;10.330;2023-07-22T01:07:19;13.70;99.90
6696;DHT22;3385;48.928;10.330;2023-07-22T01:09:45;14.10;99.90
6696;DHT22;3385;48.928;10.330;2023-07-22T01:12:11;14.00;99.90
6696;DHT22;3385;48.928;10.330;2023-07-22T01:14:39;13.90;99.90
6696;DHT22;3385;48.928;10.330;2023-07-22T01:17:07;14.20;99.90
6696;DHT22;3385;48.928;10.330;2023-07-22T01:19:34;13.90;99.90
6696;DHT22;3385;48.928;10.330;2023-07-22T01:22:02;14.10;99.90
6696;DHT22;3385;48.928;10.330;2023-07-22T01:24:31;14.20;99.90
6696;DHT22;3385;48.928;10.330;2023-07-22T01:26:57;14.00;99.90
6696;DHT22;3385;48.928;10.330;2023-07-22T01:29:24;13.70;99.90
6696;DHT22;3385;48.928;10.330;2023-07-22T01:31:54;14.00;99.90
6696;DHT22;3385;48.928;10.330;2023-07-22T01:34:22;13.70;99.90
6696;DHT22;3385;48.928;10.330;2023-07-22T01:36:50;13.50;99.90
6696;DHT22;3385;48.928;10.330;2023-07-22T01:39:16;13.50;99.90
6696;DHT22;3385;48.928;10.330;2023-07-22T01:41:44;13.70;99.90
6696;DHT22;3385;48.928;10.330;2023-07-22T01:44:10;13.40;99.90
6696;DHT22;3385;48.928;10.330;2023-07-22T01:46:36;13.50;99.90
6696;DHT22;3385;48.928;10.330;2023-07-22T01:49:06;13.50;99.90
6696;DHT22;3385;48.928;10.330;2023-07-22T01:51:35;13.50;99.90
6696;DHT22;3385;48.928;10.330;2023-07-22T01:54:03;13.80;99.90
6696;DHT22;3385;48.928;10.330;2023-07-22T01:56:29;13.50;99.90
6696;DHT22;3385;48.928;10.330;2023-07-22T01:58:55;13.40;99.90
6696;DHT22;3385;48.928;10.330;2023-07-22T02:01:21;13.80;99.90
6696;DHT22;3385;48.928;10.330;2023-07-22T02:03:46;13.70;99.90
6696;DHT22;3385;48.928;10.330;2023-07-22T02:06:12;13.60;99.90
6696;DHT22;3385;48.928;10.330;2023-07-22T02:08:38;13.60;99.90
6696;DHT22;3385;48.928;10.330;2023-07-22T02:11:07;13.40;99.90
6696;DHT22;3385;48.928;10.330;2023-07-22T02:13:34;13.40;99.90
6696;DHT22;3385;48.928;10.330;2023-07-22T02:16:01;13.20;99.90
6696;DHT22;3385;48.928;10.330;2023-07-22T02:18:28;13.30;99.90
6696;DHT22;3385;48.928;10.330;2023-07-22T02:20:54;13.70;99.90
6696;DHT22;3385;48.928;10.330;2023-07-22T02:23:20;13.20;99.90
6696;DHT22;3385;48.928;10.330;2023-07-22T02:25:51;13.30;99.90
6696;DHT22;3385;48.928;10.330;2023-07-22T02:28:18;13.50;99.90
6696;DHT22;3385;48.928;10.330;2023-07-22T02:30:53;13.60;99.90
6696;DHT22;3385;48.928;10.330;2023-07-22T02:33:20;13.70;99.90
6696;DHT22;3385;48.928;10.330;2023-07-22T02:35:47;13.30;99.90
6696;DHT22;3385;48.928;10.330;2023-07-22T02:38:13;13.60;99.90
6696;DHT22;3385;48.928;10.330;2023-07-22T02:40:40;13.50;99.90
6696;DHT22;3385;48.928;10.330;2023-07-22T02:43:06;13.70;99.90
6696;DHT22;3385;48.928;10.330;2023-07-22T02:45:33;13.20;99.90
6696;DHT22;3385;48.928;10.330;2023-07-22T02:47:59;13.70;99.90
6696;DHT22;3385;48.928;10.330;2023-07-22T02:50:25;13.20;99.90
6696;DHT22;3385;48.928;10.330;2023-07-22T02:52:51;13.30;99.90
6696;DHT22;3385;48.928;10.330;2023-07-22T02:55:17;13.50;99.90
6696;DHT22;3385;48.928;10.330;2023-07-22T02:57:47;13.70;99.90
6696;DHT22;3385;48.928;10.330;2023-07-22T03:00:17;13.60;99.90
6696;DHT22;3385;48.928;10.330;2023-07-22T03:02:49;13.50;99.90
6696;DHT22;3385;48.928;10.330;2023-07-22T03:05:16;13.50;99.90
6696;DHT22;3385;48.928;10.330;2023-07-22T03:07:42;13.70;99.90
6696;DHT22;3385;48.928;10.330;2023-07-22T03:10:08;13.50;99.90
6696;DHT22;3385;48.928;10.330;2023-07-22T03:12:35;13.20;99.90
6696;DHT22;3385;48.928;10.330;2023-07-22T03:15:01;13.30;99.90
6696;DHT22;3385;48.928;10.330;2023-07-22T03:17:27;13.50;99.90
6696;DHT22;3385;48.928;10.330;2023-07-22T03:19:53;13.20;99.90
6696;DHT22;3385;48.928;10.330;2023-07-22T03:22:18;13.20;99.90
6696;DHT22;3385;48.928;10.330;2023-07-22T03:24:45;13.60;99.90
6696;DHT22;3385;48.928;10.330;2023-07-22T03:27:11;13.40;99.90
6696;DHT22;3385;48.928;10.330;2023-07-22T03:29:38;13.30;99.90
6696;DHT22;3385;48.928;10.330;2023-07-22T03:32:04;13.60;99.90
6696;DHT22;3385;48.928;10.330;2023-07-22T03:34:31;13.40;99.90
6696;DHT22;3385;48.928;10.330;2023-07-22T03:36:57;13.60;99.90
6696;DHT22;3385;48.928;10.330;2023-07-22T03:39:24;13.50;99.90
6696;DHT22;3385;48.928;10.330;2023-07-22T03:41:49;13.20;99.90
6696;DHT22;3385;48.928;10.330;2023-07-22T03:44:15;13.40;99.90
6696;DHT22;3385;48.928;10.330;2023-07-22T03:46:41;13.10;99.90
6696;DHT22;3385;48.928;10.330;2023-07-22T03:49:07;13.10;99.90
6696;DHT22;3385;48.928;10.330;2023-07-22T03:51:33;13.20;99.90
6696;DHT22;3385;48.928;10.330;2023-07-22T03:53:59;13.20;99.90
6696;DHT22;3385;48.928;10.330;2023-07-22T03:56:25;13.10;99.90
6696;DHT22;3385;48.928;10.330;2023-07-22T03:58:51;13.40;99.90
6696;DHT22;3385;48.928;10.330;2023-07-22T04:01:17;13.30;99.90
6696;DHT22;3385;48.928;10.330;2023-07-22T04:03:43;13.30;99.90
6696;DHT22;3385;48.928;10.330;2023-07-22T04:06:09;13.30;99.90
6696;DHT22;3385;48.928;10.330;2023-07-22T04:08:34;13.50;99.90
6696;DHT22;3385;48.928;10.330;2023-07-22T04:11:00;13.10;99.90
6696;DHT22;3385;48.928;10.330;2023-07-22T04:13:27;13.30;99.90
6696;DHT22;3385;48.928;10.330;2023-07-22T04:15:53;13.30;99.90
6696;DHT22;3385;48.928;10.330;2023-07-22T04:20:46;13.10;99.90
6696;DHT22;3385;48.928;10.330;2023-07-22T04:23:15;13.30;99.90
6696;DHT22;3385;48.928;10.330;2023-07-22T04:25:44;13.20;99.90
6696;DHT22;3385;48.928;10.330;2023-07-22T04:30:37;13.20;99.90
6696;DHT22;3385;48.928;10.330;2023-07-22T04:33:04;13.70;99.90
6696;DHT22;3385;48.928;10.330;2023-07-22T04:35:40;13.30;99.90
6696;DHT22;3385;48.928;10.330;2023-07-22T04:38:06;13.30;99.90
6696;DHT22;3385;48.928;10.330;2023-07-22T04:40:32;13.50;99.90
6696;DHT22;3385;48.928;10.330;2023-07-22T04:42:58;13.90;99.90
6696;DHT22;3385;48.928;10.330;2023-07-22T04:47:50;13.50;99.90
6696;DHT22;3385;48.928;10.330;2023-07-22T04:50:16;13.30;99.90
6696;DHT22;3385;48.928;10.330;2023-07-22T04:52:46;13.20;99.90
6696;DHT22;3385;48.928;10.330;2023-07-22T04:55:13;13.00;99.90
6696;DHT22;3385;48.928;10.330;2023-07-22T04:57:39;12.80;99.90
6696;DHT22;3385;48.928;10.330;2023-07-22T05:00:09;12.90;99.90
6696;DHT22;3385;48.928;10.330;2023-07-22T05:02:37;13.10;99.90
6696;DHT22;3385;48.928;10.330;2023-07-22T05:05:04;13.20;99.90
6696;DHT22;3385;48.928;10.330;2023-07-22T05:07:30;13.30;99.90
6696;DHT22;3385;48.928;10.330;2023-07-22T05:09:55;13.20;99.90
6696;DHT22;3385;48.928;10.330;2023-07-22T05:12:21;13.30;99.90
6696;DHT22;3385;48.928;10.330;2023-07-22T05:14:47;13.60;99.90
6696;DHT22;3385;48.928;10.330;2023-07-22T05:17:13;13.50;99.90
6696;DHT22;3385;48.928;10.330;2023-07-22T05:19:39;13.90;99.90
6696;DHT22;3385;48.928;10.330;2023-07-22T05:22:05;13.70;99.90
6696;DHT22;3385;48.928;10.330;2023-07-22T05:24:31;13.60;99.90
6696;DHT22;3385;48.928;10.330;2023-07-22T05:26:56;13.70;99.90
6696;DHT22;3385;48.928;10.330;2023-07-22T05:29:22;13.70;99.90
6696;DHT22;3385;48.928;10.330;2023-07-22T05:31:48;13.70;99.90
6696;DHT22;3385;48.928;10.330;2023-07-22T05:34:13;13.80;99.90
6696;DHT22;3385;48.928;10.330;2023-07-22T05:36:40;14.00;99.90
6696;DHT22;3385;48.928;10.330;2023-07-22T05:39:05;13.80;99.90
6696;DHT22;3385;48.928;10.330;2023-07-22T05:41:33;13.90;99.90
6696;DHT22;3385;48.928;10.330;2023-07-22T05:43:59;13.90;99.90
6696;DHT22;3385;48.928;10.330;2023-07-22T05:46:24;14.00;99.90
6696;DHT22;3385;48.928;10.330;2023-07-22T05:48:50;14.20;99.90
6696;DHT22;3385;48.928;10.330;2023-07-22T05:51:17;14.50;99.90
6696;DHT22;3385;48.928;10.330;2023-07-22T05:53:43;14.40;99.90
6696;DHT22;3385;48.928;10.330;2023-07-22T05:56:08;14.40;99.90
6696;DHT22;3385;48.928;10.330;2023-07-22T05:58:34;14.70;99.90
6696;DHT22;3385;48.928;10.330;2023-07-22T06:01:00;14.60;99.90
6696;DHT22;3385;48.928;10.330;2023-07-22T06:03:26;14.90;99.90
6696;DHT22;3385;48.928;10.330;2023-07-22T06:05:52;14.80;99.90
6696;DHT22;3385;48.928;10.330;2023-07-22T06:08:17;15.40;99.90
6696;DHT22;3385;48.928;10.330;2023-07-22T06:10:44;15.40;99.90
6696;DHT22;3385;48.928;10.330;2023-07-22T06:13:10;15.50;99.90
6696;DHT22;3385;48.928;10.330;2023-07-22T06:15:35;17.30;99.90
6696;DHT22;3385;48.928;10.330;2023-07-22T06:18:01;15.40;99.90
6696;DHT22;3385;48.928;10.330;2023-07-22T06:20:28;15.80;99.90
6696;DHT22;3385;48.928;10.330;2023-07-22T06:22:54;15.80;99.90
6696;DHT22;3385;48.928;10.330;2023-07-22T06:25:20;16.20;99.90
6696;DHT22;3385;48.928;10.330;2023-07-22T06:27:46;16.50;99.90
6696;DHT22;3385;48.928;10.330;2023-07-22T06:30:11;16.50;99.90
6696;DHT22;3385;48.928;10.330;2023-07-22T06:32:38;16.50;99.90
6696;DHT22;3385;48.928;10.330;2023-07-22T06:35:04;16.30;99.90
6696;DHT22;3385;48.928;10.330;2023-07-22T06:37:30;16.30;99.90
6696;DHT22;3385;48.928;10.330;2023-07-22T06:39:56;16.60;99.90
6696;DHT22;3385;48.928;10.330;2023-07-22T06:42:22;16.80;99.90
6696;DHT22;3385;48.928;10.330;2023-07-22T06:44:49;16.90;99.90
6696;DHT22;3385;48.928;10.330;2023-07-22T06:47:15;16.60;99.90
6696;DHT22;3385;48.928;10.330;2023-07-22T06:49:41;17.00;99.90
6696;DHT22;3385;48.928;10.330;2023-07-22T06:52:07;17.00;99.90
6696;DHT22;3385;48.928;10.330;2023-07-22T06:54:33;17.30;99.90
6696;DHT22;3385;48.928;10.330;2023-07-22T06:56:59;17.40;99.90
6696;DHT22;3385;48.928;10.330;2023-07-22T06:59:25;18.00;99.90
6696;DHT22;3385;48.928;10.330;2023-07-22T07:01:52;17.70;99.90
6696;DHT22;3385;48.928;10.330;2023-07-22T07:04:18;18.20;99.90
6696;DHT22;3385;48.928;10.330;2023-07-22T07:06:43;18.00;99.90
6696;DHT22;3385;48.928;10.330;2023-07-22T07:09:11;18.30;99.90
6696;DHT22;3385;48.928;10.330;2023-07-22T07:11:37;18.40;99.90
6696;DHT22;3385;48.928;10.330;2023-07-22T07:14:02;18.20;99.90
6696;DHT22;3385;48.928;10.330;2023-07-22T07:16:30;18.50;99.90
6696;DHT22;3385;48.928;10.330;2023-07-22T07:18:57;18.70;99.90
6696;DHT22;3385;48.928;10.330;2023-07-22T07:21:24;18.60;99.90
6696;DHT22;3385;48.928;10.330;2023-07-22T07:23:50;18.10;99.90
6696;DHT22;3385;48.928;10.330;2023-07-22T07:26:17;18.80;99.90
6696;DHT22;3385;48.928;10.330;2023-07-22T07:28:43;18.80;99.90
6696;DHT22;3385;48.928;10.330;2023-07-22T07:31:09;18.90;99.90
6696;DHT22;3385;48.928;10.330;2023-07-22T07:33:34;19.00;99.90
6696;DHT22;3385;48.928;10.330;2023-07-22T07:36:01;18.90;99.90
6696;DHT22;3385;48.928;10.330;2023-07-22T07:38:27;19.30;99.90
6696;DHT22;3385;48.928;10.330;2023-07-22T07:40:59;19.50;99.90
6696;DHT22;3385;48.928;10.330;2023-07-22T07:43:26;19.40;99.90
6696;DHT22;3385;48.928;10.330;2023-07-22T07:46:24;19.30;99.90
6696;DHT22;3385;48.928;10.330;2023-07-22T07:48:59;19.70;99.90
6696;DHT22;3385;48.928;10.330;2023-07-22T07:51:27;19.50;99.90
6696;DHT22;3385;48.928;10.330;2023-07-22T07:53:54;19.60;99.90
6696;DHT22;3385;48.928;10.330;2023-07-22T07:56:20;19.70;99.90
6696;DHT22;3385;48.928;10.330;2023-07-22T07:58:47;19.70;99.90
6696;DHT22;3385;48.928;10.330;2023-07-22T08:01:13;20.00;99.90
6696;DHT22;3385;48.928;10.330;2023-07-22T08:03:40;20.10;99.90
6696;DHT22;3385;48.928;10.330;2023-07-22T08:06:07;20.50;99.90
6696;DHT22;3385;48.928;10.330;2023-07-22T08:08:34;20.20;99.90
6696;DHT22;3385;48.928;10.330;2023-07-22T08:11:06;20.40;99.90
6696;DHT22;3385;48.928;10.330;2023-07-22T08:13:33;20.30;99.90
6696;DHT22;3385;48.928;10.330;2023-07-22T08:16:01;20.60;99.90
6696;DHT22;3385;48.928;10.330;2023-07-22T08:18:27;20.60;99.90
6696;DHT22;3385;48.928;10.330;2023-07-22T08:20:55;20.80;99.90
6696;DHT22;3385;48.928;10.330;2023-07-22T08:25:48;20.50;99.90
6696;DHT22;3385;48.928;10.330;2023-07-22T08:28:14;20.50;99.90
6696;DHT22;3385;48.928;10.330;2023-07-22T08:30:40;20.50;99.90
6696;DHT22;3385;48.928;10.330;2023-07-22T08:33:13;20.90;99.90
6696;DHT22;3385;48.928;10.330;2023-07-22T08:35:39;21.20;99.90
6696;DHT22;3385;48.928;10.330;2023-07-22T08:38:05;21.40;99.90
6696;DHT22;3385;48.928;10.330;2023-07-22T08:40:38;21.40;99.90
6696;DHT22;3385;48.928;10.330;2023-07-22T08:43:06;21.10;99.90
6696;DHT22;3385;48.928;10.330;2023-07-22T08:45:33;21.20;99.90
6696;DHT22;3385;48.928;10.330;2023-07-22T08:48:07;21.20;99.90
6696;DHT22;3385;48.928;10.330;2023-07-22T08:53:44;21.00;99.90
6696;DHT22;3385;48.928;10.330;2023-07-22T08:56:11;21.20;99.90
6696;DHT22;3385;48.928;10.330;2023-07-22T08:58:38;21.40;99.90
6696;DHT22;3385;48.928;10.330;2023-07-22T09:01:04;21.00;99.90
6696;DHT22;3385;48.928;10.330;2023-07-22T09:03:34;21.40;99.90
6696;DHT22;3385;48.928;10.330;2023-07-22T09:06:00;21.80;99.90
6696;DHT22;3385;48.928;10.330;2023-07-22T09:08:27;22.20;99.90
6696;DHT22;3385;48.928;10.330;2023-07-22T09:10:53;22.40;99.90
6696;DHT22;3385;48.928;10.330;2023-07-22T09:13:20;22.30;99.90
6696;DHT22;3385;48.928;10.330;2023-07-22T09:15:47;22.70;99.90
6696;DHT22;3385;48.928;10.330;2023-07-22T09:18:15;22.80;99.90
6696;DHT22;3385;48.928;10.330;2023-07-22T09:20:41;22.70;99.90
6696;DHT22;3385;48.928;10.330;2023-07-22T09:23:08;22.80;99.90
6696;DHT22;3385;48.928;10.330;2023-07-22T09:25:33;22.60;99.90
6696;DHT22;3385;48.928;10.330;2023-07-22T09:28:00;22.80;99.90
6696;DHT22;3385;48.928;10.330;2023-07-22T09:30:33;22.60;99.90
6696;DHT22;3385;48.928;10.330;2023-07-22T09:33:01;22.90;99.90
6696;DHT22;3385;48.928;10.330;2023-07-22T09:38:08;23.40;99.90
6696;DHT22;3385;48.928;10.330;2023-07-22T09:40:33;23.10;99.90
6696;DHT22;3385;48.928;10.330;2023-07-22T09:43:02;23.70;99.90
6696;DHT22;3385;48.928;10.330;2023-07-22T09:45:30;23.50;99.90
6696;DHT22;3385;48.928;10.330;2023-07-22T09:47:56;23.50;99.90
6696;DHT22;3385;48.928;10.330;2023-07-22T09:50:23;23.50;99.90
6696;DHT22;3385;48.928;10.330;2023-07-22T09:52:55;23.70;99.90
6696;DHT22;3385;48.928;10.330;2023-07-22T09:55:22;23.90;99.90
6696;DHT22;3385;48.928;10.330;2023-07-22T09:58:01;24.70;99.90
6696;DHT22;3385;48.928;10.330;2023-07-22T10:00:32;24.50;99.90
6696;DHT22;3385;48.928;10.330;2023-07-22T10:03:00;24.40;99.90
6696;DHT22;3385;48.928;10.330;2023-07-22T10:05:27;24.30;99.90
6696;DHT22;3385;48.928;10.330;2023-07-22T10:07:56;24.40;99.90
6696;DHT22;3385;48.928;10.330;2023-07-22T10:10:37;24.50;99.90
6696;DHT22;3385;48.928;10.330;2023-07-22T10:13:03;24.10;99.90
6696;DHT22;3385;48.928;10.330;2023-07-22T10:15:30;23.90;99.90
6696;DHT22;3385;48.928;10.330;2023-07-22T10:17:58;24.00;99.90
6696;DHT22;3385;48.928;10.330;2023-07-22T10:20:25;24.00;99.90
6696;DHT22;3385;48.928;10.330;2023-07-22T10:22:51;23.90;99.90
6696;DHT22;3385;48.928;10.330;2023-07-22T10:25:18;24.00;99.90
6696;DHT22;3385;48.928;10.330;2023-07-22T10:27:45;23.90;99.90
6696;DHT22;3385;48.928;10.330;2023-07-22T10:30:16;24.20;99.90
6696;DHT22;3385;48.928;10.330;2023-07-22T10:32:49;23.90;99.90
6696;DHT22;3385;48.928;10.330;2023-07-22T10:37:56;24.70;99.90
6696;DHT22;3385;48.928;10.330;2023-07-22T10:40:25;24.80;99.90
6696;DHT22;3385;48.928;10.330;2023-07-22T10:43:05;25.50;99.90
6696;DHT22;3385;48.928;10.330;2023-07-22T10:45:41;25.30;99.90
6696;DHT22;3385;48.928;10.330;2023-07-22T10:48:12;25.60;99.90
6696;DHT22;3385;48.928;10.330;2023-07-22T10:50:52;25.10;99.90
6696;DHT22;3385;48.928;10.330;2023-07-22T10:58:55;26.10;99.90
6696;DHT22;3385;48.928;10.330;2023-07-22T11:06:41;25.90;99.90
6696;DHT22;3385;48.928;10.330;2023-07-22T11:12:02;25.80;99.90
6696;DHT22;3385;48.928;10.330;2023-07-22T11:14:30;25.80;99.90
6696;DHT22;3385;48.928;10.330;2023-07-22T11:16:57;25.70;99.90
6696;DHT22;3385;48.928;10.330;2023-07-22T11:19:25;25.90;99.90
6696;DHT22;3385;48.928;10.330;2023-07-22T11:21:52;25.70;99.90
6696;DHT22;3385;48.928;10.330;2023-07-22T11:24:19;25.40;99.90
6696;DHT22;3385;48.928;10.330;2023-07-22T11:26:46;25.20;99.90
6696;DHT22;3385;48.928;10.330;2023-07-22T11:29:12;25.00;99.90
6696;DHT22;3385;48.928;10.330;2023-07-22T11:31:45;24.90;99.90
6696;DHT22;3385;48.928;10.330;2023-07-22T11:34:22;24.90;99.90
6696;DHT22;3385;48.928;10.330;2023-07-22T11:36:49;25.10;99.90
6696;DHT22;3385;48.928;10.330;2023-07-22T11:39:18;25.30;99.90
6696;DHT22;3385;48.928;10.330;2023-07-22T11:41:45;25.90;99.90
6696;DHT22;3385;48.928;10.330;2023-07-22T11:44:13;26.50;99.90
6696;DHT22;3385;48.928;10.330;2023-07-22T11:52:03;27.50;99.90
6696;DHT22;3385;48.928;10.330;2023-07-22T11:54:34;27.40;99.90
6696;DHT22;3385;48.928;10.330;2023-07-22T11:57:29;28.60;99.90
6696;DHT22;3385;48.928;10.330;2023-07-22T11:59:56;28.50;99.90
6696;DHT22;3385;48.928;10.330;2023-07-22T12:02:26;28.80;99.90
6696;DHT22;3385;48.928;10.330;2023-07-22T12:04:59;29.80;99.90
6696;DHT22;3385;48.928;10.330;2023-07-22T12:07:45;30.00;99.90
6696;DHT22;3385;48.928;10.330;2023-07-22T12:16:05;31.60;99.90
6696;DHT22;3385;48.928;10.330;2023-07-22T12:18:43;32.10;99.90
6696;DHT22;3385;48.928;10.330;2023-07-22T12:21:09;33.20;99.90
6696;DHT22;3385;48.928;10.330;2023-07-22T12:23:36;33.50;99.90
6696;DHT22;3385;48.928;10.330;2023-07-22T12:26:05;32.70;99.90
6696;DHT22;3385;48.928;10.330;2023-07-22T12:28:31;33.00;99.90
6696;DHT22;3385;48.928;10.330;2023-07-22T12:30:57;33.10;99.90
6696;DHT22;3385;48.928;10.330;2023-07-22T12:33:24;33.30;99.90
6696;DHT22;3385;48.928;10.330;2023-07-22T12:35:50;33.30;99.90
6696;DHT22;3385;48.928;10.330;2023-07-22T12:38:16;33.60;99.90
6696;DHT22;3385;48.928;10.330;2023-07-22T12:40:42;33.20;99.90
6696;DHT22;3385;48.928;10.330;2023-07-22T12:43:08;33.60;99.90
6696;DHT22;3385;48.928;10.330;2023-07-22T12:45:34;34.60;99.90
6696;DHT22;3385;48.928;10.330;2023-07-22T12:48:00;34.60;99.90
6696;DHT22;3385;48.928;10.330;2023-07-22T12:50:25;34.20;99.90
6696;DHT22;3385;48.928;10.330;2023-07-22T12:52:51;34.00;99.90
6696;DHT22;3385;48.928;10.330;2023-07-22T12:55:17;33.50;99.90
6696;DHT22;3385;48.928;10.330;2023-07-22T12:57:43;30.40;99.90
6696;DHT22;3385;48.928;10.330;2023-07-22T13:00:09;30.30;99.90
6696;DHT22;3385;48.928;10.330;2023-07-22T13:02:37;30.30;99.90
6696;DHT22;3385;48.928;10.330;2023-07-22T13:05:03;30.50;99.90
6696;DHT22;3385;48.928;10.330;2023-07-22T13:07:31;31.60;99.90
6696;DHT22;3385;48.928;10.330;2023-07-22T13:10:00;31.60;99.90
6696;DHT22;3385;48.928;10.330;2023-07-22T13:12:36;32.30;99.90
6696;DHT22;3385;48.928;10.330;2023-07-22T13:15:03;34.00;99.90
6696;DHT22;3385;48.928;10.330;2023-07-22T13:17:29;35.60;99.90
6696;DHT22;3385;48.928;10.330;2023-07-22T13:19:54;36.20;99.90
6696;DHT22;3385;48.928;10.330;2023-07-22T13:22:20;35.10;99.90
6696;DHT22;3385;48.928;10.330;2023-07-22T13:24:46;35.00;99.90
6696;DHT22;3385;48.928;10.330;2023-07-22T13:27:11;34.50;99.90
6696;DHT22;3385;48.928;10.330;2023-07-22T13:29:37;32.90;99.90
6696;DHT22;3385;48.928;10.330;2023-07-22T13:32:03;32.40;99.90
6696;DHT22;3385;48.928;10.330;2023-07-22T13:34:29;32.60;99.90
6696;DHT22;3385;48.928;10.330;2023-07-22T13:36:55;33.70;99.90
6696;DHT22;3385;48.928;10.330;2023-07-22T13:39:21;35.30;99.90
6696;DHT22;3385;48.928;10.330;2023-07-22T13:41:47;36.20;99.90
6696;DHT22;3385;48.928;10.330;2023-07-22T13:44:13;36.40;99.90
6696;DHT22;3385;48.928;10.330;2023-07-22T13:46:38;36.60;99.90
6696;DHT22;3385;48.928;10.330;2023-07-22T13:49:04;34.90;99.90
6696;DHT22;3385;48.928;10.330;2023-07-22T13:51:30;32.70;99.90
6696;DHT22;3385;48.928;10.330;2023-07-22T13:53:55;31.10;99.90
6696;DHT22;3385;48.928;10.330;2023-07-22T13:56:23;30.20;99.90
6696;DHT22;3385;48.928;10.330;2023-07-22T13:58:49;31.40;99.90
6696;DHT22;3385;48.928;10.330;2023-07-22T14:01:16;31.90;99.90
6696;DHT22;3385;48.928;10.330;2023-07-22T14:03:42;32.30;99.90
6696;DHT22;3385;48.928;10.330;2023-07-22T14:06:07;33.30;99.90
6696;DHT22;3385;48.928;10.330;2023-07-22T14:08:34;33.90;99.90
6696;DHT22;3385;48.928;10.330;2023-07-22T14:11:00;33.70;99.90
6696;DHT22;3385;48.928;10.330;2023-07-22T14:13:25;33.00;99.90
6696;DHT22;3385;48.928;10.330;2023-07-22T14:15:51;32.10;99.90
6696;DHT22;3385;48.928;10.330;2023-07-22T14:18:18;31.60;99.90
6696;DHT22;3385;48.928;10.330;2023-07-22T14:20:44;31.30;99.90
6696;DHT22;3385;48.928;10.330;2023-07-22T14:23:11;30.80;99.90
6696;DHT22;3385;48.928;10.330;2023-07-22T14:25:37;31.00;99.90
6696;DHT22;3385;48.928;10.330;2023-07-22T14:28:02;34.00;99.90
6696;DHT22;3385;48.928;10.330;2023-07-22T14:30:28;33.60;99.90
6696;DHT22;3385;48.928;10.330;2023-07-22T14:32:54;34.50;99.90
6696;DHT22;3385;48.928;10.330;2023-07-22T14:35:21;35.20;99.90
6696;DHT22;3385;48.928;10.330;2023-07-22T14:37:47;33.80;99.90
6696;DHT22;3385;48.928;10.330;2023-07-22T14:40:13;33.50;99.90
6696;DHT22;3385;48.928;10.330;2023-07-22T14:42:39;32.00;99.90
6696;DHT22;3385;48.928;10.330;2023-07-22T14:45:06;30.60;99.90
6696;DHT22;3385;48.928;10.330;2023-07-22T14:47:34;31.50;99.90
6696;DHT22;3385;48.928;10.330;2023-07-22T14:50:00;31.70;99.90
6696;DHT22;3385;48.928;10.330;2023-07-22T14:52:26;32.40;99.90
6696;DHT22;3385;48.928;10.330;2023-07-22T14:54:52;33.20;99.90
6696;DHT22;3385;48.928;10.330;2023-07-22T14:57:18;33.60;99.90
6696;DHT22;3385;48.928;10.330;2023-07-22T14:59:44;32.60;99.90
6696;DHT22;3385;48.928;10.330;2023-07-22T15:02:09;32.30;99.90
6696;DHT22;3385;48.928;10.330;2023-07-22T15:04:36;33.60;99.90
6696;DHT22;3385;48.928;10.330;2023-07-22T15:07:02;34.10;99.90
6696;DHT22;3385;48.928;10.330;2023-07-22T15:09:28;33.40;99.90
6696;DHT22;3385;48.928;10.330;2023-07-22T15:11:53;33.60;99.90
6696;DHT22;3385;48.928;10.330;2023-07-22T15:14:19;33.30;99.90
6696;DHT22;3385;48.928;10.330;2023-07-22T15:16:45;32.60;99.90
6696;DHT22;3385;48.928;10.330;2023-07-22T15:19:11;31.30;99.90
6696;DHT22;3385;48.928;10.330;2023-07-22T15:21:37;31.00;99.90
6696;DHT22;3385;48.928;10.330;2023-07-22T15:24:04;28.90;99.90
6696;DHT22;3385;48.928;10.330;2023-07-22T15:26:30;29.30;99.90
6696;DHT22;3385;48.928;10.330;2023-07-22T15:28:55;28.60;99.90
6696;DHT22;3385;48.928;10.330;2023-07-22T15:31:21;28.30;99.90
6696;DHT22;3385;48.928;10.330;2023-07-22T15:33:47;28.90;99.90
6696;DHT22;3385;48.928;10.330;2023-07-22T15:36:13;30.10;99.90
6696;DHT22;3385;48.928;10.330;2023-07-22T15:38:40;31.30;99.90
6696;DHT22;3385;48.928;10.330;2023-07-22T15:41:06;31.40;99.90
6696;DHT22;3385;48.928;10.330;2023-07-22T15:43:32;31.20;99.90
6696;DHT22;3385;48.928;10.330;2023-07-22T15:45:58;30.80;99.90
6696;DHT22;3385;48.928;10.330;2023-07-22T15:48:24;29.50;99.90
6696;DHT22;3385;48.928;10.330;2023-07-22T15:50:50;29.10;99.90
6696;DHT22;3385;48.928;10.330;2023-07-22T15:53:16;28.30;99.90
6696;DHT22;3385;48.928;10.330;2023-07-22T15:55:42;28.70;99.90
6696;DHT22;3385;48.928;10.330;2023-07-22T15:58:08;29.90;99.90
6696;DHT22;3385;48.928;10.330;2023-07-22T16:00:34;30.10;99.90
6696;DHT22;3385;48.928;10.330;2023-07-22T16:03:00;29.70;99.90
6696;DHT22;3385;48.928;10.330;2023-07-22T16:05:26;29.30;99.90
6696;DHT22;3385;48.928;10.330;2023-07-22T16:07:52;28.40;99.90
6696;DHT22;3385;48.928;10.330;2023-07-22T16:10:17;28.00;99.90
6696;DHT22;3385;48.928;10.330;2023-07-22T16:12:43;28.20;99.90
6696;DHT22;3385;48.928;10.330;2023-07-22T16:15:09;28.50;99.90
6696;DHT22;3385;48.928;10.330;2023-07-22T16:17:34;29.00;99.90
6696;DHT22;3385;48.928;10.330;2023-07-22T16:20:00;28.70;99.90
6696;DHT22;3385;48.928;10.330;2023-07-22T16:22:26;28.60;99.90
6696;DHT22;3385;48.928;10.330;2023-07-22T16:24:53;28.20;99.90
6696;DHT22;3385;48.928;10.330;2023-07-22T16:27:19;28.10;99.90